sensor_id;sensor_type;location;lat;lon;timestamp;temperature;humidity
32366;DHT22;18837;46.832;16.838;2023-02-13T00:00:19;6.20;90.30
32366;DHT22;18837;46.832;16.838;2023-02-13T00:02:46;6.20;90.70
32366;DHT22;18837;46.832;16.838;2023-02-13T00:05:11;6.20;90.50
32366;DHT22;18837;46.832;16.838;2023-02-13T00:07:37;6.20;90.70
32366;DHT22;18837;46.832;16.838;2023-02-13T00:10:04;6.10;90.60
32366;DHT22;18837;46.832;16.838;2023-02-13T00:12:30;6.10;90.50
32366;DHT22;18837;46.832;16.838;2023-02-13T00:14:56;6.10;90.70
32366;DHT22;18837;46.832;16.838;2023-02-13T00:17:21;6.10;90.80
32366;DHT22;18837;46.832;16.838;2023-02-13T00:19:47;6.10;90.80
32366;DHT22;18837;46.832;16.838;2023-02-13T00:22:13;6.00;90.80
32366;DHT22;18837;46.832;16.838;2023-02-13T00:24:41;6.00;90.90
32366;DHT22;18837;46.832;16.838;2023-02-13T00:27:07;6.00;90.50
32366;DHT22;18837;46.832;16.838;2023-02-13T00:29:32;6.00;91.20
32366;DHT22;18837;46.832;16.838;2023-02-13T00:31:58;6.00;90.90
32366;DHT22;18837;46.832;16.838;2023-02-13T00:34:26;6.00;91.00
32366;DHT22;18837;46.832;16.838;2023-02-13T00:36:51;6.00;90.90
32366;DHT22;18837;46.832;16.838;2023-02-13T00:39:17;5.90;91.00
32366;DHT22;18837;46.832;16.838;2023-02-13T00:41:43;5.90;91.10
32366;DHT22;18837;46.832;16.838;2023-02-13T00:44:09;5.90;91.10
32366;DHT22;18837;46.832;16.838;2023-02-13T00:46:35;5.90;91.00
32366;DHT22;18837;46.832;16.838;2023-02-13T00:49:01;5.90;91.00
32366;DHT22;18837;46.832;16.838;2023-02-13T00:51:27;5.90;91.20
32366;DHT22;18837;46.832;16.838;2023-02-13T00:53:53;5.90;91.10
32366;DHT22;18837;46.832;16.838;2023-02-13T00:56:19;5.80;91.20
32366;DHT22;18837;46.832;16.838;2023-02-13T00:58:45;5.80;91.20
32366;DHT22;18837;46.832;16.838;2023-02-13T01:01:14;5.80;91.40
32366;DHT22;18837;46.832;16.838;2023-02-13T01:03:40;5.80;91.40
32366;DHT22;18837;46.832;16.838;2023-02-13T01:06:06;5.80;91.30
32366;DHT22;18837;46.832;16.838;2023-02-13T01:08:32;5.70;91.10
32366;DHT22;18837;46.832;16.838;2023-02-13T01:10:59;5.70;91.00
32366;DHT22;18837;46.832;16.838;2023-02-13T01:13:25;5.70;91.20
32366;DHT22;18837;46.832;16.838;2023-02-13T01:15:51;5.70;91.40
32366;DHT22;18837;46.832;16.838;2023-02-13T01:18:19;5.70;91.20
32366;DHT22;18837;46.832;16.838;2023-02-13T01:20:54;5.70;91.40
32366;DHT22;18837;46.832;16.838;2023-02-13T01:23:20;5.70;91.00
32366;DHT22;18837;46.832;16.838;2023-02-13T01:25:45;5.70;91.10
32366;DHT22;18837;46.832;16.838;2023-02-13T01:28:11;5.70;91.20
32366;DHT22;18837;46.832;16.838;2023-02-13T01:30:37;5.60;91.30
32366;DHT22;18837;46.832;16.838;2023-02-13T01:33:03;5.60;91.50
32366;DHT22;18837;46.832;16.838;2023-02-13T01:35:28;5.60;91.20
32366;DHT22;18837;46.832;16.838;2023-02-13T01:37:59;5.60;91.40
32366;DHT22;18837;46.832;16.838;2023-02-13T01:40:25;5.60;91.60
32366;DHT22;18837;46.832;16.838;2023-02-13T01:42:54;5.50;91.40
32366;DHT22;18837;46.832;16.838;2023-02-13T01:45:26;5.50;91.50
32366;DHT22;18837;46.832;16.838;2023-02-13T01:48:02;5.50;91.40
32366;DHT22;18837;46.832;16.838;2023-02-13T01:50:47;5.50;91.40
32366;DHT22;18837;46.832;16.838;2023-02-13T01:53:26;5.50;91.60
32366;DHT22;18837;46.832;16.838;2023-02-13T01:56:04;5.50;91.50
32366;DHT22;18837;46.832;16.838;2023-02-13T01:58:34;5.50;91.60
32366;DHT22;18837;46.832;16.838;2023-02-13T02:01:01;5.40;91.40
32366;DHT22;18837;46.832;16.838;2023-02-13T02:03:32;5.40;91.60
32366;DHT22;18837;46.832;16.838;2023-02-13T02:06:01;5.40;91.50
32366;DHT22;18837;46.832;16.838;2023-02-13T02:08:28;5.40;91.40
32366;DHT22;18837;46.832;16.838;2023-02-13T02:10:55;5.40;91.30
32366;DHT22;18837;46.832;16.838;2023-02-13T02:13:22;5.40;91.20
32366;DHT22;18837;46.832;16.838;2023-02-13T02:15:51;5.40;91.30
32366;DHT22;18837;46.832;16.838;2023-02-13T02:18:24;5.40;91.60
32366;DHT22;18837;46.832;16.838;2023-02-13T02:29:35;5.30;91.90
32366;DHT22;18837;46.832;16.838;2023-02-13T02:38:36;5.30;91.80
32366;DHT22;18837;46.832;16.838;2023-02-13T02:41:19;5.30;91.70
32366;DHT22;18837;46.832;16.838;2023-02-13T02:55:23;5.30;91.70
32366;DHT22;18837;46.832;16.838;2023-02-13T02:58:20;5.20;91.40
32366;DHT22;18837;46.832;16.838;2023-02-13T03:01:08;5.20;91.30
32366;DHT22;18837;46.832;16.838;2023-02-13T03:03:56;5.10;91.10
32366;DHT22;18837;46.832;16.838;2023-02-13T03:06:53;5.20;91.10
32366;DHT22;18837;46.832;16.838;2023-02-13T03:09:29;5.10;91.00
32366;DHT22;18837;46.832;16.838;2023-02-13T03:12:56;5.10;91.20
32366;DHT22;18837;46.832;16.838;2023-02-13T03:15:43;5.10;91.50
32366;DHT22;18837;46.832;16.838;2023-02-13T03:18:34;5.10;91.10
32366;DHT22;18837;46.832;16.838;2023-02-13T03:21:34;5.10;91.10
32366;DHT22;18837;46.832;16.838;2023-02-13T03:27:17;5.00;91.50
32366;DHT22;18837;46.832;16.838;2023-02-13T03:30:28;5.00;91.00
32366;DHT22;18837;46.832;16.838;2023-02-13T03:41:17;5.00;91.50
32366;DHT22;18837;46.832;16.838;2023-02-13T03:44:37;5.00;91.20
32366;DHT22;18837;46.832;16.838;2023-02-13T03:47:10;5.00;91.40
32366;DHT22;18837;46.832;16.838;2023-02-13T03:49:42;4.90;91.00
32366;DHT22;18837;46.832;16.838;2023-02-13T03:53:00;4.90;91.10
32366;DHT22;18837;46.832;16.838;2023-02-13T03:55:33;4.90;91.40
32366;DHT22;18837;46.832;16.838;2023-02-13T03:58:51;4.90;90.90
32366;DHT22;18837;46.832;16.838;2023-02-13T04:01:42;4.90;91.00
32366;DHT22;18837;46.832;16.838;2023-02-13T04:04:27;4.90;91.00
32366;DHT22;18837;46.832;16.838;2023-02-13T04:07:07;4.90;91.20
32366;DHT22;18837;46.832;16.838;2023-02-13T04:09:37;4.90;91.60
32366;DHT22;18837;46.832;16.838;2023-02-13T04:15:15;4.90;91.60
32366;DHT22;18837;46.832;16.838;2023-02-13T04:18:01;4.90;91.60
32366;DHT22;18837;46.832;16.838;2023-02-13T04:20:31;4.80;91.30
32366;DHT22;18837;46.832;16.838;2023-02-13T04:23:05;4.80;91.10
32366;DHT22;18837;46.832;16.838;2023-02-13T04:25:31;4.80;91.40
32366;DHT22;18837;46.832;16.838;2023-02-13T04:27:59;4.80;91.10
32366;DHT22;18837;46.832;16.838;2023-02-13T04:30:25;4.80;91.20
32366;DHT22;18837;46.832;16.838;2023-02-13T04:32:50;4.80;91.30
32366;DHT22;18837;46.832;16.838;2023-02-13T04:35:17;4.80;91.10
32366;DHT22;18837;46.832;16.838;2023-02-13T04:37:44;4.80;91.10
32366;DHT22;18837;46.832;16.838;2023-02-13T04:40:10;4.80;91.30
32366;DHT22;18837;46.832;16.838;2023-02-13T04:42:39;4.80;91.30
32366;DHT22;18837;46.832;16.838;2023-02-13T04:45:09;4.80;91.40
32366;DHT22;18837;46.832;16.838;2023-02-13T04:47:35;4.80;91.30
32366;DHT22;18837;46.832;16.838;2023-02-13T04:50:01;4.80;91.30
32366;DHT22;18837;46.832;16.838;2023-02-13T04:52:26;4.80;91.20
32366;DHT22;18837;46.832;16.838;2023-02-13T04:54:52;4.80;91.30
32366;DHT22;18837;46.832;16.838;2023-02-13T04:57:18;4.80;91.30
32366;DHT22;18837;46.832;16.838;2023-02-13T04:59:44;4.80;91.40
32366;DHT22;18837;46.832;16.838;2023-02-13T05:02:09;4.80;91.10
32366;DHT22;18837;46.832;16.838;2023-02-13T05:04:35;4.80;91.20
32366;DHT22;18837;46.832;16.838;2023-02-13T05:07:01;4.80;91.30
32366;DHT22;18837;46.832;16.838;2023-02-13T05:09:26;4.80;91.20
32366;DHT22;18837;46.832;16.838;2023-02-13T05:11:53;4.80;91.40
32366;DHT22;18837;46.832;16.838;2023-02-13T05:14:19;4.80;91.20
32366;DHT22;18837;46.832;16.838;2023-02-13T05:16:45;4.80;91.30
32366;DHT22;18837;46.832;16.838;2023-02-13T05:19:11;4.70;91.20
32366;DHT22;18837;46.832;16.838;2023-02-13T05:21:37;4.70;91.30
32366;DHT22;18837;46.832;16.838;2023-02-13T05:24:21;4.70;91.40
32366;DHT22;18837;46.832;16.838;2023-02-13T05:26:47;4.80;91.40
32366;DHT22;18837;46.832;16.838;2023-02-13T05:29:13;4.70;91.30
32366;DHT22;18837;46.832;16.838;2023-02-13T05:31:52;4.80;91.50
32366;DHT22;18837;46.832;16.838;2023-02-13T05:34:19;4.70;91.70
32366;DHT22;18837;46.832;16.838;2023-02-13T05:36:45;4.70;91.10
32366;DHT22;18837;46.832;16.838;2023-02-13T05:39:11;4.70;91.30
32366;DHT22;18837;46.832;16.838;2023-02-13T05:41:37;4.70;91.20
32366;DHT22;18837;46.832;16.838;2023-02-13T05:44:03;4.70;91.30
32366;DHT22;18837;46.832;16.838;2023-02-13T05:46:29;4.70;91.30
32366;DHT22;18837;46.832;16.838;2023-02-13T05:48:55;4.70;91.20
32366;DHT22;18837;46.832;16.838;2023-02-13T05:51:21;4.70;91.30
32366;DHT22;18837;46.832;16.838;2023-02-13T05:53:46;4.70;91.30
32366;DHT22;18837;46.832;16.838;2023-02-13T05:56:12;4.70;91.30
32366;DHT22;18837;46.832;16.838;2023-02-13T05:58:38;4.70;91.10
32366;DHT22;18837;46.832;16.838;2023-02-13T06:01:04;4.70;91.40
32366;DHT22;18837;46.832;16.838;2023-02-13T06:03:30;4.70;91.40
32366;DHT22;18837;46.832;16.838;2023-02-13T06:05:56;4.70;91.30
32366;DHT22;18837;46.832;16.838;2023-02-13T06:08:22;4.70;91.30
32366;DHT22;18837;46.832;16.838;2023-02-13T06:10:49;4.70;91.30
32366;DHT22;18837;46.832;16.838;2023-02-13T06:13:15;4.70;91.10
32366;DHT22;18837;46.832;16.838;2023-02-13T06:15:41;4.70;91.30
32366;DHT22;18837;46.832;16.838;2023-02-13T06:18:07;4.70;91.30
32366;DHT22;18837;46.832;16.838;2023-02-13T06:20:33;4.70;91.20
32366;DHT22;18837;46.832;16.838;2023-02-13T06:22:59;4.60;91.20
32366;DHT22;18837;46.832;16.838;2023-02-13T06:25:24;4.60;91.00
32366;DHT22;18837;46.832;16.838;2023-02-13T06:27:50;4.60;91.10
32366;DHT22;18837;46.832;16.838;2023-02-13T06:30:17;4.60;91.10
32366;DHT22;18837;46.832;16.838;2023-02-13T06:32:45;4.60;91.20
32366;DHT22;18837;46.832;16.838;2023-02-13T06:35:11;4.60;90.80
32366;DHT22;18837;46.832;16.838;2023-02-13T06:37:37;4.60;90.90
32366;DHT22;18837;46.832;16.838;2023-02-13T06:40:07;4.50;91.00
32366;DHT22;18837;46.832;16.838;2023-02-13T06:42:33;4.60;91.60
32366;DHT22;18837;46.832;16.838;2023-02-13T06:44:59;4.60;91.10
32366;DHT22;18837;46.832;16.838;2023-02-13T06:47:25;4.60;91.10
32366;DHT22;18837;46.832;16.838;2023-02-13T06:49:50;4.60;91.00
32366;DHT22;18837;46.832;16.838;2023-02-13T06:52:16;4.60;90.90
32366;DHT22;18837;46.832;16.838;2023-02-13T06:54:42;4.60;91.00
32366;DHT22;18837;46.832;16.838;2023-02-13T06:57:08;4.60;91.00
32366;DHT22;18837;46.832;16.838;2023-02-13T06:59:33;4.60;90.90
32366;DHT22;18837;46.832;16.838;2023-02-13T07:01:59;4.60;91.00
32366;DHT22;18837;46.832;16.838;2023-02-13T07:04:26;4.60;91.00
32366;DHT22;18837;46.832;16.838;2023-02-13T07:06:56;4.60;91.00
32366;DHT22;18837;46.832;16.838;2023-02-13T07:09:22;4.50;90.80
32366;DHT22;18837;46.832;16.838;2023-02-13T07:11:49;4.60;91.00
32366;DHT22;18837;46.832;16.838;2023-02-13T07:14:14;4.50;91.00
32366;DHT22;18837;46.832;16.838;2023-02-13T07:16:40;4.50;91.10
32366;DHT22;18837;46.832;16.838;2023-02-13T07:19:06;4.50;90.90
32366;DHT22;18837;46.832;16.838;2023-02-13T07:21:32;4.50;90.80
32366;DHT22;18837;46.832;16.838;2023-02-13T07:23:58;4.50;91.10
32366;DHT22;18837;46.832;16.838;2023-02-13T07:26:24;4.50;91.00
32366;DHT22;18837;46.832;16.838;2023-02-13T07:28:51;4.40;90.90
32366;DHT22;18837;46.832;16.838;2023-02-13T07:31:17;4.50;91.00
32366;DHT22;18837;46.832;16.838;2023-02-13T07:33:42;4.40;91.00
32366;DHT22;18837;46.832;16.838;2023-02-13T07:36:08;4.50;91.00
32366;DHT22;18837;46.832;16.838;2023-02-13T07:38:34;4.40;91.00
32366;DHT22;18837;46.832;16.838;2023-02-13T07:41:01;4.50;91.10
32366;DHT22;18837;46.832;16.838;2023-02-13T07:43:27;4.40;90.90
32366;DHT22;18837;46.832;16.838;2023-02-13T07:45:57;4.40;91.00
32366;DHT22;18837;46.832;16.838;2023-02-13T07:48:23;4.50;91.10
32366;DHT22;18837;46.832;16.838;2023-02-13T07:50:49;4.50;91.00
32366;DHT22;18837;46.832;16.838;2023-02-13T07:53:15;4.50;91.10
32366;DHT22;18837;46.832;16.838;2023-02-13T07:55:40;4.50;91.20
32366;DHT22;18837;46.832;16.838;2023-02-13T07:58:06;4.50;91.10
32366;DHT22;18837;46.832;16.838;2023-02-13T08:00:32;4.50;91.30
32366;DHT22;18837;46.832;16.838;2023-02-13T08:03:01;4.50;91.20
32366;DHT22;18837;46.832;16.838;2023-02-13T08:05:28;4.50;91.10
32366;DHT22;18837;46.832;16.838;2023-02-13T08:07:55;4.50;91.20
32366;DHT22;18837;46.832;16.838;2023-02-13T08:10:21;4.50;91.20
32366;DHT22;18837;46.832;16.838;2023-02-13T08:13:06;4.50;91.60
32366;DHT22;18837;46.832;16.838;2023-02-13T08:15:32;4.50;91.10
32366;DHT22;18837;46.832;16.838;2023-02-13T08:17:58;4.50;91.30
32366;DHT22;18837;46.832;16.838;2023-02-13T08:20:24;4.50;91.30
32366;DHT22;18837;46.832;16.838;2023-02-13T08:22:50;4.60;91.40
32366;DHT22;18837;46.832;16.838;2023-02-13T08:25:16;4.60;91.40
32366;DHT22;18837;46.832;16.838;2023-02-13T08:27:43;4.60;91.40
32366;DHT22;18837;46.832;16.838;2023-02-13T08:30:09;4.60;91.50
32366;DHT22;18837;46.832;16.838;2023-02-13T08:32:35;4.60;91.60
32366;DHT22;18837;46.832;16.838;2023-02-13T08:35:01;4.60;91.40
32366;DHT22;18837;46.832;16.838;2023-02-13T08:37:26;4.60;91.40
32366;DHT22;18837;46.832;16.838;2023-02-13T08:39:52;4.60;91.40
32366;DHT22;18837;46.832;16.838;2023-02-13T08:42:18;4.60;91.40
32366;DHT22;18837;46.832;16.838;2023-02-13T08:44:43;4.70;91.50
32366;DHT22;18837;46.832;16.838;2023-02-13T08:47:09;4.70;91.30
32366;DHT22;18837;46.832;16.838;2023-02-13T08:49:35;4.70;91.30
32366;DHT22;18837;46.832;16.838;2023-02-13T08:52:01;4.80;91.30
32366;DHT22;18837;46.832;16.838;2023-02-13T08:54:27;4.70;91.20
32366;DHT22;18837;46.832;16.838;2023-02-13T08:56:54;4.80;91.20
32366;DHT22;18837;46.832;16.838;2023-02-13T08:59:20;4.80;91.30
32366;DHT22;18837;46.832;16.838;2023-02-13T09:01:46;4.80;91.10
32366;DHT22;18837;46.832;16.838;2023-02-13T09:04:12;4.80;91.30
32366;DHT22;18837;46.832;16.838;2023-02-13T09:06:41;4.80;91.00
32366;DHT22;18837;46.832;16.838;2023-02-13T09:09:07;4.90;91.00
32366;DHT22;18837;46.832;16.838;2023-02-13T09:11:33;4.90;91.10
32366;DHT22;18837;46.832;16.838;2023-02-13T09:13:58;4.90;91.10
32366;DHT22;18837;46.832;16.838;2023-02-13T09:16:24;4.90;91.10
32366;DHT22;18837;46.832;16.838;2023-02-13T09:18:50;5.00;91.10
32366;DHT22;18837;46.832;16.838;2023-02-13T09:21:17;5.00;91.30
32366;DHT22;18837;46.832;16.838;2023-02-13T09:23:43;5.00;91.00
32366;DHT22;18837;46.832;16.838;2023-02-13T09:26:11;5.00;91.00
32366;DHT22;18837;46.832;16.838;2023-02-13T09:28:39;5.00;91.00
32366;DHT22;18837;46.832;16.838;2023-02-13T09:31:09;5.10;91.00
32366;DHT22;18837;46.832;16.838;2023-02-13T09:33:36;5.10;91.00
32366;DHT22;18837;46.832;16.838;2023-02-13T09:36:06;5.10;91.00
32366;DHT22;18837;46.832;16.838;2023-02-13T09:38:33;5.10;91.00
32366;DHT22;18837;46.832;16.838;2023-02-13T09:41:06;5.20;91.00
32366;DHT22;18837;46.832;16.838;2023-02-13T09:43:40;5.20;90.90
32366;DHT22;18837;46.832;16.838;2023-02-13T09:46:16;5.20;90.90
32366;DHT22;18837;46.832;16.838;2023-02-13T09:48:46;5.20;90.90
32366;DHT22;18837;46.832;16.838;2023-02-13T09:51:18;5.20;90.80
32366;DHT22;18837;46.832;16.838;2023-02-13T09:54:05;5.30;90.80
32366;DHT22;18837;46.832;16.838;2023-02-13T10:05:22;5.30;91.20
32366;DHT22;18837;46.832;16.838;2023-02-13T10:21:50;5.60;91.40
32366;DHT22;18837;46.832;16.838;2023-02-13T10:30:07;5.60;91.20
32366;DHT22;18837;46.832;16.838;2023-02-13T10:32:57;5.70;93.10
32366;DHT22;18837;46.832;16.838;2023-02-13T10:38:33;6.00;92.30
32366;DHT22;18837;46.832;16.838;2023-02-13T10:41:13;6.20;91.50
32366;DHT22;18837;46.832;16.838;2023-02-13T10:58:18;6.70;91.10
32366;DHT22;18837;46.832;16.838;2023-02-13T11:03:27;6.70;91.00
32366;DHT22;18837;46.832;16.838;2023-02-13T11:05:54;6.80;90.00
32366;DHT22;18837;46.832;16.838;2023-02-13T11:08:37;6.80;89.50
32366;DHT22;18837;46.832;16.838;2023-02-13T11:11:31;6.80;90.70
32366;DHT22;18837;46.832;16.838;2023-02-13T11:14:11;6.80;91.10
32366;DHT22;18837;46.832;16.838;2023-02-13T11:21:45;6.80;89.70
32366;DHT22;18837;46.832;16.838;2023-02-13T11:24:40;6.90;88.80
32366;DHT22;18837;46.832;16.838;2023-02-13T11:27:09;6.90;90.60
32366;DHT22;18837;46.832;16.838;2023-02-13T11:29:53;6.90;89.30
32366;DHT22;18837;46.832;16.838;2023-02-13T11:32:23;6.90;90.10
32366;DHT22;18837;46.832;16.838;2023-02-13T11:34:49;6.90;90.00
32366;DHT22;18837;46.832;16.838;2023-02-13T11:37:19;7.00;89.80
32366;DHT22;18837;46.832;16.838;2023-02-13T11:39:46;6.90;89.60
32366;DHT22;18837;46.832;16.838;2023-02-13T11:42:25;6.90;89.80
32366;DHT22;18837;46.832;16.838;2023-02-13T11:45:04;6.90;90.70
32366;DHT22;18837;46.832;16.838;2023-02-13T11:47:41;6.80;90.10
32366;DHT22;18837;46.832;16.838;2023-02-13T11:50:31;6.80;90.20
32366;DHT22;18837;46.832;16.838;2023-02-13T11:53:00;6.80;90.30
32366;DHT22;18837;46.832;16.838;2023-02-13T11:55:33;6.70;90.40
32366;DHT22;18837;46.832;16.838;2023-02-13T12:04:05;6.70;91.80
32366;DHT22;18837;46.832;16.838;2023-02-13T12:06:32;6.70;90.40
32366;DHT22;18837;46.832;16.838;2023-02-13T12:09:11;6.70;90.30
32366;DHT22;18837;46.832;16.838;2023-02-13T12:11:47;6.60;90.60
32366;DHT22;18837;46.832;16.838;2023-02-13T12:14:20;6.60;91.70
32366;DHT22;18837;46.832;16.838;2023-02-13T12:17:06;6.60;90.50
32366;DHT22;18837;46.832;16.838;2023-02-13T12:19:43;6.60;90.60
32366;DHT22;18837;46.832;16.838;2023-02-13T12:22:30;6.60;90.40
32366;DHT22;18837;46.832;16.838;2023-02-13T12:36:18;6.60;91.50
32366;DHT22;18837;46.832;16.838;2023-02-13T12:44:25;6.60;90.90
32366;DHT22;18837;46.832;16.838;2023-02-13T12:52:52;6.60;90.40
32366;DHT22;18837;46.832;16.838;2023-02-13T13:03:50;6.70;91.20
32366;DHT22;18837;46.832;16.838;2023-02-13T13:14:42;6.70;91.30
32366;DHT22;18837;46.832;16.838;2023-02-13T13:25:09;6.70;92.20
32366;DHT22;18837;46.832;16.838;2023-02-13T13:27:45;6.70;91.90
32366;DHT22;18837;46.832;16.838;2023-02-13T13:30:20;6.80;91.90
32366;DHT22;18837;46.832;16.838;2023-02-13T13:35:38;6.80;92.60
32366;DHT22;18837;46.832;16.838;2023-02-13T13:43:11;6.80;91.50
32366;DHT22;18837;46.832;16.838;2023-02-13T13:51:03;6.80;91.80
32366;DHT22;18837;46.832;16.838;2023-02-13T13:53:29;6.80;91.10
32366;DHT22;18837;46.832;16.838;2023-02-13T14:01:23;6.80;91.10
32366;DHT22;18837;46.832;16.838;2023-02-13T14:04:02;6.90;91.50
32366;DHT22;18837;46.832;16.838;2023-02-13T14:09:38;6.80;91.30
32366;DHT22;18837;46.832;16.838;2023-02-13T14:12:43;6.90;91.90
32366;DHT22;18837;46.832;16.838;2023-02-13T14:18:20;6.80;91.60
32366;DHT22;18837;46.832;16.838;2023-02-13T14:28:39;6.80;91.40
32366;DHT22;18837;46.832;16.838;2023-02-13T14:31:09;6.80;90.70
32366;DHT22;18837;46.832;16.838;2023-02-13T14:33:41;6.70;90.70
32366;DHT22;18837;46.832;16.838;2023-02-13T14:36:19;6.70;90.70
32366;DHT22;18837;46.832;16.838;2023-02-13T14:38:54;6.70;90.80
32366;DHT22;18837;46.832;16.838;2023-02-13T14:42:00;6.70;90.90
32366;DHT22;18837;46.832;16.838;2023-02-13T14:44:45;6.70;90.90
32366;DHT22;18837;46.832;16.838;2023-02-13T14:49:55;6.70;91.60
32366;DHT22;18837;46.832;16.838;2023-02-13T14:52:34;6.70;91.30
32366;DHT22;18837;46.832;16.838;2023-02-13T14:55:34;6.70;91.90
32366;DHT22;18837;46.832;16.838;2023-02-13T14:58:19;6.70;92.00
32366;DHT22;18837;46.832;16.838;2023-02-13T15:00:51;6.60;91.10
32366;DHT22;18837;46.832;16.838;2023-02-13T15:03:28;6.60;91.00
32366;DHT22;18837;46.832;16.838;2023-02-13T15:06:11;6.60;90.90
32366;DHT22;18837;46.832;16.838;2023-02-13T15:08:47;6.60;90.80
32366;DHT22;18837;46.832;16.838;2023-02-13T15:11:37;6.70;90.80
32366;DHT22;18837;46.832;16.838;2023-02-13T15:14:22;6.60;91.70
32366;DHT22;18837;46.832;16.838;2023-02-13T15:16:54;6.60;91.00
32366;DHT22;18837;46.832;16.838;2023-02-13T15:19:22;6.60;91.20
32366;DHT22;18837;46.832;16.838;2023-02-13T15:21:57;6.50;91.10
32366;DHT22;18837;46.832;16.838;2023-02-13T15:24:24;6.50;91.20
32366;DHT22;18837;46.832;16.838;2023-02-13T15:27:02;6.50;91.40
32366;DHT22;18837;46.832;16.838;2023-02-13T15:29:29;6.50;91.40
32366;DHT22;18837;46.832;16.838;2023-02-13T15:31:55;6.40;91.40
32366;DHT22;18837;46.832;16.838;2023-02-13T15:34:27;6.40;91.40
32366;DHT22;18837;46.832;16.838;2023-02-13T15:36:54;6.40;92.00
32366;DHT22;18837;46.832;16.838;2023-02-13T15:39:26;6.40;91.60
32366;DHT22;18837;46.832;16.838;2023-02-13T15:41:55;6.30;91.60
32366;DHT22;18837;46.832;16.838;2023-02-13T15:44:28;6.30;91.50
32366;DHT22;18837;46.832;16.838;2023-02-13T15:47:45;6.30;91.60
32366;DHT22;18837;46.832;16.838;2023-02-13T15:49:47;6.30;91.60
32366;DHT22;18837;46.832;16.838;2023-02-13T15:54:52;6.30;92.20
32366;DHT22;18837;46.832;16.838;2023-02-13T15:57:20;6.30;91.60
32366;DHT22;18837;46.832;16.838;2023-02-13T15:59:48;6.20;91.50
32366;DHT22;18837;46.832;16.838;2023-02-13T16:02:42;6.20;91.50
32366;DHT22;18837;46.832;16.838;2023-02-13T16:05:12;6.20;91.60
32366;DHT22;18837;46.832;16.838;2023-02-13T16:07:56;6.20;91.60
32366;DHT22;18837;46.832;16.838;2023-02-13T16:10:30;6.20;91.60
32366;DHT22;18837;46.832;16.838;2023-02-13T16:12:58;6.10;91.60
32366;DHT22;18837;46.832;16.838;2023-02-13T16:15:28;6.10;91.60
32366;DHT22;18837;46.832;16.838;2023-02-13T16:17:55;6.10;91.40
32366;DHT22;18837;46.832;16.838;2023-02-13T16:20:29;6.00;91.40
32366;DHT22;18837;46.832;16.838;2023-02-13T16:23:16;6.10;91.40
32366;DHT22;18837;46.832;16.838;2023-02-13T16:25:46;6.00;91.30
32366;DHT22;18837;46.832;16.838;2023-02-13T16:28:22;6.00;91.20
32366;DHT22;18837;46.832;16.838;2023-02-13T16:31:00;6.00;91.20
32366;DHT22;18837;46.832;16.838;2023-02-13T16:33:28;6.00;91.30
32366;DHT22;18837;46.832;16.838;2023-02-13T16:35:56;5.90;91.30
32366;DHT22;18837;46.832;16.838;2023-02-13T16:44:00;5.90;91.30
32366;DHT22;18837;46.832;16.838;2023-02-13T16:46:40;5.90;91.70
32366;DHT22;18837;46.832;16.838;2023-02-13T16:51:38;5.80;91.30
32366;DHT22;18837;46.832;16.838;2023-02-13T16:54:18;5.80;91.20
32366;DHT22;18837;46.832;16.838;2023-02-13T16:56:50;5.80;92.00
32366;DHT22;18837;46.832;16.838;2023-02-13T16:59:23;5.80;91.80
32366;DHT22;18837;46.832;16.838;2023-02-13T17:02:18;5.90;91.90
32366;DHT22;18837;46.832;16.838;2023-02-13T17:07:41;6.30;92.50
32366;DHT22;18837;46.832;16.838;2023-02-13T17:10:36;6.50;92.30
32366;DHT22;18837;46.832;16.838;2023-02-13T17:15:36;6.90;91.40
32366;DHT22;18837;46.832;16.838;2023-02-13T17:18:05;7.00;90.40
32366;DHT22;18837;46.832;16.838;2023-02-13T17:20:32;7.10;90.30
32366;DHT22;18837;46.832;16.838;2023-02-13T17:23:00;7.30;90.10
32366;DHT22;18837;46.832;16.838;2023-02-13T17:25:34;7.40;89.90
32366;DHT22;18837;46.832;16.838;2023-02-13T17:30:33;7.50;90.80
32366;DHT22;18837;46.832;16.838;2023-02-13T17:33:01;7.60;89.30
32366;DHT22;18837;46.832;16.838;2023-02-13T17:35:27;7.70;88.40
32366;DHT22;18837;46.832;16.838;2023-02-13T17:37:53;7.70;88.60
32366;DHT22;18837;46.832;16.838;2023-02-13T17:40:21;7.70;89.30
32366;DHT22;18837;46.832;16.838;2023-02-13T17:42:51;7.80;88.50
32366;DHT22;18837;46.832;16.838;2023-02-13T17:45:20;7.80;88.00
32366;DHT22;18837;46.832;16.838;2023-02-13T17:47:46;7.80;88.00
32366;DHT22;18837;46.832;16.838;2023-02-13T17:50:13;7.80;88.10
32366;DHT22;18837;46.832;16.838;2023-02-13T17:52:39;7.80;87.90
32366;DHT22;18837;46.832;16.838;2023-02-13T17:55:27;7.90;87.90
32366;DHT22;18837;46.832;16.838;2023-02-13T17:57:54;7.90;87.60
32366;DHT22;18837;46.832;16.838;2023-02-13T18:00:26;7.90;87.60
32366;DHT22;18837;46.832;16.838;2023-02-13T18:02:53;7.90;87.70
32366;DHT22;18837;46.832;16.838;2023-02-13T18:05:19;7.90;87.30
32366;DHT22;18837;46.832;16.838;2023-02-13T18:07:46;7.90;87.00
32366;DHT22;18837;46.832;16.838;2023-02-13T18:10:23;7.90;87.20
32366;DHT22;18837;46.832;16.838;2023-02-13T18:12:51;7.90;87.60
32366;DHT22;18837;46.832;16.838;2023-02-13T18:15:17;7.90;87.40
32366;DHT22;18837;46.832;16.838;2023-02-13T18:17:43;7.80;87.20
32366;DHT22;18837;46.832;16.838;2023-02-13T18:20:15;7.80;87.70
32366;DHT22;18837;46.832;16.838;2023-02-13T18:22:41;7.80;87.40
32366;DHT22;18837;46.832;16.838;2023-02-13T18:25:07;7.80;87.30
32366;DHT22;18837;46.832;16.838;2023-02-13T18:27:33;7.80;87.60
32366;DHT22;18837;46.832;16.838;2023-02-13T18:29:59;7.80;88.00
32366;DHT22;18837;46.832;16.838;2023-02-13T18:32:25;7.80;87.30
32366;DHT22;18837;46.832;16.838;2023-02-13T18:34:50;7.80;87.10
32366;DHT22;18837;46.832;16.838;2023-02-13T18:37:17;7.70;87.30
32366;DHT22;18837;46.832;16.838;2023-02-13T18:39:43;7.80;88.10
32366;DHT22;18837;46.832;16.838;2023-02-13T18:42:09;7.70;87.00
32366;DHT22;18837;46.832;16.838;2023-02-13T18:44:38;7.70;87.60
32366;DHT22;18837;46.832;16.838;2023-02-13T18:47:03;7.70;86.60
32366;DHT22;18837;46.832;16.838;2023-02-13T18:49:29;7.60;86.90
32366;DHT22;18837;46.832;16.838;2023-02-13T18:51:55;7.60;87.10
32366;DHT22;18837;46.832;16.838;2023-02-13T18:54:21;7.60;87.00
32366;DHT22;18837;46.832;16.838;2023-02-13T18:56:47;7.60;87.60
32366;DHT22;18837;46.832;16.838;2023-02-13T18:59:13;7.60;87.20
32366;DHT22;18837;46.832;16.838;2023-02-13T19:01:39;7.50;86.60
32366;DHT22;18837;46.832;16.838;2023-02-13T19:04:05;7.50;86.90
32366;DHT22;18837;46.832;16.838;2023-02-13T19:06:31;7.50;87.10
32366;DHT22;18837;46.832;16.838;2023-02-13T19:08:57;7.40;86.90
32366;DHT22;18837;46.832;16.838;2023-02-13T19:11:24;7.40;86.60
32366;DHT22;18837;46.832;16.838;2023-02-13T19:13:56;7.40;86.70
32366;DHT22;18837;46.832;16.838;2023-02-13T19:16:23;7.40;87.10